sensor_id;sensor_type;location;lat;lon;timestamp;pressure;altitude;pressure_sealevel;temperature;humidity
35553;BME280;21656;46.054;13.614;2023-02-02T07:37:53;101127.19;;;2.71;100.00
35553;BME280;21656;46.054;13.614;2023-02-02T07:40:18;101125.44;;;2.70;100.00
35553;BME280;21656;46.054;13.614;2023-02-02T07:42:47;101126.94;;;2.77;100.00
35553;BME280;21656;46.054;13.614;2023-02-02T07:45:13;101122.19;;;2.86;100.00
35553;BME280;21656;46.054;13.614;2023-02-02T07:47:38;101118.34;;;2.94;100.00
35553;BME280;21656;46.054;13.614;2023-02-02T07:50:04;101125.97;;;3.03;100.00
35553;BME280;21656;46.054;13.614;2023-02-02T07:52:30;101120.47;;;3.08;100.00
35553;BME280;21656;46.054;13.614;2023-02-02T07:54:55;101131.94;;;3.10;100.00
35553;BME280;21656;46.054;13.614;2023-02-02T07:57:22;101124.59;;;3.17;100.00
35553;BME280;21656;46.054;13.614;2023-02-02T07:59:48;101127.00;;;3.23;100.00
35553;BME280;21656;46.054;13.614;2023-02-02T08:02:15;101138.03;;;3.36;100.00
35553;BME280;21656;46.054;13.614;2023-02-02T08:04:41;101126.16;;;3.44;100.00
35553;BME280;21656;46.054;13.614;2023-02-02T08:07:07;101125.53;;;3.38;100.00
35553;BME280;21656;46.054;13.614;2023-02-02T08:09:33;101129.22;;;3.34;100.00
35553;BME280;21656;46.054;13.614;2023-02-02T08:11:59;101138.91;;;3.36;100.00
35553;BME280;21656;46.054;13.614;2023-02-02T08:14:27;101133.38;;;3.41;100.00
35553;BME280;21656;46.054;13.614;2023-02-02T08:16:53;101140.16;;;3.50;100.00
35553;BME280;21656;46.054;13.614;2023-02-02T08:19:19;101135.53;;;3.55;100.00
35553;BME280;21656;46.054;13.614;2023-02-02T08:21:44;101143.25;;;3.61;100.00
35553;BME280;21656;46.054;13.614;2023-02-02T08:24:10;101135.81;;;3.69;100.00
35553;BME280;21656;46.054;13.614;2023-02-02T08:26:35;101132.09;;;3.73;100.00
35553;BME280;21656;46.054;13.614;2023-02-02T08:29:04;101142.31;;;3.84;100.00
35553;BME280;21656;46.054;13.614;2023-02-02T08:31:38;101140.28;;;3.90;100.00
35553;BME280;21656;46.054;13.614;2023-02-02T08:34:05;101129.63;;;3.90;100.00
35553;BME280;21656;46.054;13.614;2023-02-02T08:36:31;101126.81;;;3.94;100.00
35553;BME280;21656;46.054;13.614;2023-02-02T08:39:03;101127.81;;;3.91;100.00
35553;BME280;21656;46.054;13.614;2023-02-02T08:41:30;101115.16;;;3.96;100.00
35553;BME280;21656;46.054;13.614;2023-02-02T08:43:55;101115.97;;;3.98;100.00
35553;BME280;21656;46.054;13.614;2023-02-02T08:46:21;101125.50;;;4.04;100.00
35553;BME280;21656;46.054;13.614;2023-02-02T08:48:47;101125.13;;;4.13;100.00
35553;BME280;21656;46.054;13.614;2023-02-02T08:51:16;101123.31;;;4.13;100.00
35553;BME280;21656;46.054;13.614;2023-02-02T08:53:42;101119.78;;;4.13;100.00
35553;BME280;21656;46.054;13.614;2023-02-02T08:56:13;101129.66;;;4.11;100.00
35553;BME280;21656;46.054;13.614;2023-02-02T08:58:50;101134.16;;;4.09;100.00
35553;BME280;21656;46.054;13.614;2023-02-02T09:01:21;101133.97;;;4.13;100.00
35553;BME280;21656;46.054;13.614;2023-02-02T09:03:47;101138.91;;;4.23;100.00
35553;BME280;21656;46.054;13.614;2023-02-02T09:06:18;101132.38;;;4.30;100.00
35553;BME280;21656;46.054;13.614;2023-02-02T09:08:45;101124.66;;;4.44;100.00
35553;BME280;21656;46.054;13.614;2023-02-02T09:11:18;101118.97;;;4.52;100.00
35553;BME280;21656;46.054;13.614;2023-02-02T09:13:45;101118.16;;;4.70;100.00
35553;BME280;21656;46.054;13.614;2023-02-02T09:16:15;101122.44;;;4.93;100.00
35553;BME280;21656;46.054;13.614;2023-02-02T09:18:43;101124.53;;;5.06;100.00
35553;BME280;21656;46.054;13.614;2023-02-02T09:21:11;101119.34;;;5.21;100.00
35553;BME280;21656;46.054;13.614;2023-02-02T09:23:41;101132.22;;;5.32;100.00
35553;BME280;21656;46.054;13.614;2023-02-02T09:26:18;101135.38;;;5.40;100.00
35553;BME280;21656;46.054;13.614;2023-02-02T09:28:50;101139.69;;;5.43;100.00
35553;BME280;21656;46.054;13.614;2023-02-02T09:31:16;101135.16;;;5.45;100.00
35553;BME280;21656;46.054;13.614;2023-02-02T09:33:42;101138.63;;;5.47;100.00
35553;BME280;21656;46.054;13.614;2023-02-02T09:38:36;101135.66;;;5.90;100.00
35553;BME280;21656;46.054;13.614;2023-02-02T09:50:01;101140.72;;;5.77;100.00
35553;BME280;21656;46.054;13.614;2023-02-02T09:52:39;101141.94;;;5.89;100.00
35553;BME280;21656;46.054;13.614;2023-02-02T09:57:47;101162.06;;;6.32;100.00
35553;BME280;21656;46.054;13.614;2023-02-02T10:00:34;101152.63;;;6.42;100.00
35553;BME280;21656;46.054;13.614;2023-02-02T10:03:05;101154.88;;;6.67;100.00
35553;BME280;21656;46.054;13.614;2023-02-02T10:05:54;101155.91;;;6.82;100.00
35553;BME280;21656;46.054;13.614;2023-02-02T10:08:27;101152.75;;;7.07;100.00
35553;BME280;21656;46.054;13.614;2023-02-02T10:10:56;101150.22;;;7.37;100.00
35553;BME280;21656;46.054;13.614;2023-02-02T10:13:31;101143.38;;;7.48;100.00
35553;BME280;21656;46.054;13.614;2023-02-02T10:16:18;101138.44;;;7.56;100.00
35553;BME280;21656;46.054;13.614;2023-02-02T10:22:13;101135.94;;;7.53;100.00
35553;BME280;21656;46.054;13.614;2023-02-02T10:24:42;101136.38;;;7.45;100.00
35553;BME280;21656;46.054;13.614;2023-02-02T10:27:13;101132.84;;;7.45;100.00
35553;BME280;21656;46.054;13.614;2023-02-02T10:33:07;101112.31;;;7.59;100.00
35553;BME280;21656;46.054;13.614;2023-02-02T10:37:50;101115.78;;;8.08;100.00
35553;BME280;21656;46.054;13.614;2023-02-02T10:40:45;101106.66;;;8.56;100.00
35553;BME280;21656;46.054;13.614;2023-02-02T10:48:48;101081.03;;;8.94;100.00
35553;BME280;21656;46.054;13.614;2023-02-02T10:51:25;101085.56;;;9.07;100.00
35553;BME280;21656;46.054;13.614;2023-02-02T10:53:53;101082.09;;;9.20;97.77
35553;BME280;21656;46.054;13.614;2023-02-02T10:56:33;101088.09;;;9.38;92.83
35553;BME280;21656;46.054;13.614;2023-02-02T10:59:05;101078.81;;;9.56;91.88
35553;BME280;21656;46.054;13.614;2023-02-02T11:01:31;101075.59;;;9.91;89.32
35553;BME280;21656;46.054;13.614;2023-02-02T11:03:57;101073.19;;;10.13;84.68
35553;BME280;21656;46.054;13.614;2023-02-02T11:06:41;101066.50;;;10.19;84.83
35553;BME280;21656;46.054;13.614;2023-02-02T11:09:27;101064.72;;;10.45;84.46
35553;BME280;21656;46.054;13.614;2023-02-02T11:12:03;101064.09;;;10.67;82.31
35553;BME280;21656;46.054;13.614;2023-02-02T11:14:39;101054.88;;;10.95;81.06
35553;BME280;21656;46.054;13.614;2023-02-02T11:17:23;101046.16;;;11.04;77.03
35553;BME280;21656;46.054;13.614;2023-02-02T11:19:51;101048.44;;;11.35;76.13
35553;BME280;21656;46.054;13.614;2023-02-02T11:22:38;101035.34;;;11.65;74.63
35553;BME280;21656;46.054;13.614;2023-02-02T11:25:08;101038.50;;;11.83;73.55
35553;BME280;21656;46.054;13.614;2023-02-02T11:27:47;101033.69;;;11.76;70.82
35553;BME280;21656;46.054;13.614;2023-02-02T11:32:47;101015.88;;;11.97;69.01
35553;BME280;21656;46.054;13.614;2023-02-02T11:35:20;101020.56;;;12.06;69.39
35553;BME280;21656;46.054;13.614;2023-02-02T11:38:07;101012.97;;;12.00;69.35
35553;BME280;21656;46.054;13.614;2023-02-02T11:40:36;101006.56;;;12.01;67.24
35553;BME280;21656;46.054;13.614;2023-02-02T11:43:04;100999.06;;;12.05;68.33
35553;BME280;21656;46.054;13.614;2023-02-02T11:45:40;100992.22;;;11.77;67.51
35553;BME280;21656;46.054;13.614;2023-02-02T11:48:15;100990.50;;;11.76;68.50
35553;BME280;21656;46.054;13.614;2023-02-02T11:50:55;100991.25;;;12.13;67.55
35553;BME280;21656;46.054;13.614;2023-02-02T11:53:43;100990.41;;;12.24;67.00
35553;BME280;21656;46.054;13.614;2023-02-02T11:56:21;100987.91;;;11.98;65.49
35553;BME280;21656;46.054;13.614;2023-02-02T11:58:54;100978.53;;;11.07;69.27
35553;BME280;21656;46.054;13.614;2023-02-02T12:01:34;100970.34;;;11.33;70.29
35553;BME280;21656;46.054;13.614;2023-02-02T12:04:23;100979.03;;;11.61;69.26
35553;BME280;21656;46.054;13.614;2023-02-02T12:06:50;100965.00;;;11.80;68.39
35553;BME280;21656;46.054;13.614;2023-02-02T12:09:22;100967.19;;;11.75;67.77
35553;BME280;21656;46.054;13.614;2023-02-02T12:17:42;100965.69;;;11.95;67.19
35553;BME280;21656;46.054;13.614;2023-02-02T12:23:24;100965.31;;;11.99;66.65
35553;BME280;21656;46.054;13.614;2023-02-02T12:26:26;100973.22;;;12.13;66.07
35553;BME280;21656;46.054;13.614;2023-02-02T12:32:33;100972.16;;;12.61;64.76
35553;BME280;21656;46.054;13.614;2023-02-02T12:47:27;100959.00;;;13.22;62.39
35553;BME280;21656;46.054;13.614;2023-02-02T13:08:59;100942.28;;;11.95;68.58
35553;BME280;21656;46.054;13.614;2023-02-02T13:11:39;100931.63;;;12.16;68.57
35553;BME280;21656;46.054;13.614;2023-02-02T13:14:12;100942.53;;;12.37;67.13
35553;BME280;21656;46.054;13.614;2023-02-02T13:16:44;100937.13;;;12.37;67.64
35553;BME280;21656;46.054;13.614;2023-02-02T13:19:39;100944.88;;;12.53;67.36
35553;BME280;21656;46.054;13.614;2023-02-02T13:22:11;100939.22;;;12.67;65.82
35553;BME280;21656;46.054;13.614;2023-02-02T13:24:41;100945.59;;;12.55;66.10
35553;BME280;21656;46.054;13.614;2023-02-02T13:27:13;100940.94;;;12.34;66.02
35553;BME280;21656;46.054;13.614;2023-02-02T13:30:47;100948.66;;;12.28;67.37
35553;BME280;21656;46.054;13.614;2023-02-02T13:32:49;100937.53;;;12.44;67.80
35553;BME280;21656;46.054;13.614;2023-02-02T13:35:20;100943.78;;;12.67;67.58
35553;BME280;21656;46.054;13.614;2023-02-02T13:37:50;100940.28;;;12.87;65.93
35553;BME280;21656;46.054;13.614;2023-02-02T13:40:21;100946.94;;;12.72;65.29
35553;BME280;21656;46.054;13.614;2023-02-02T13:45:38;100947.47;;;12.43;65.84
35553;BME280;21656;46.054;13.614;2023-02-02T13:51:23;100949.44;;;11.48;68.74
35553;BME280;21656;46.054;13.614;2023-02-02T13:54:13;100954.38;;;11.54;70.31
35553;BME280;21656;46.054;13.614;2023-02-02T14:02:38;100959.22;;;11.38;73.60
35553;BME280;21656;46.054;13.614;2023-02-02T14:05:06;100960.47;;;11.21;74.37
35553;BME280;21656;46.054;13.614;2023-02-02T14:10:01;100963.50;;;10.92;74.58
35553;BME280;21656;46.054;13.614;2023-02-02T14:12:31;100969.84;;;10.54;77.95
35553;BME280;21656;46.054;13.614;2023-02-02T14:14:59;100972.06;;;10.60;79.75
35553;BME280;21656;46.054;13.614;2023-02-02T14:19:57;100965.22;;;10.44;81.21
35553;BME280;21656;46.054;13.614;2023-02-02T14:22:45;100968.34;;;10.37;82.51
35553;BME280;21656;46.054;13.614;2023-02-02T14:28:09;100978.53;;;10.19;83.32
35553;BME280;21656;46.054;13.614;2023-02-02T14:30:36;100975.75;;;10.08;83.86
35553;BME280;21656;46.054;13.614;2023-02-02T14:33:23;100969.59;;;9.93;85.42
35553;BME280;21656;46.054;13.614;2023-02-02T14:35:54;100983.28;;;9.90;87.23
35553;BME280;21656;46.054;13.614;2023-02-02T14:41:20;100986.13;;;9.74;90.64
35553;BME280;21656;46.054;13.614;2023-02-02T14:44:09;100979.81;;;9.75;90.32
35553;BME280;21656;46.054;13.614;2023-02-02T14:46:39;100976.25;;;9.75;91.67
35553;BME280;21656;46.054;13.614;2023-02-02T14:49:10;100969.78;;;9.65;90.58
35553;BME280;21656;46.054;13.614;2023-02-02T14:51:55;100982.00;;;9.56;92.73
35553;BME280;21656;46.054;13.614;2023-02-02T14:54:37;100984.38;;;9.48;93.98
35553;BME280;21656;46.054;13.614;2023-02-02T14:57:20;100982.41;;;9.37;95.14
35553;BME280;21656;46.054;13.614;2023-02-02T14:59:46;100981.06;;;9.30;96.74
35553;BME280;21656;46.054;13.614;2023-02-02T15:02:19;100981.69;;;9.21;96.30
35553;BME280;21656;46.054;13.614;2023-02-02T15:04:47;100974.88;;;9.15;96.77
35553;BME280;21656;46.054;13.614;2023-02-02T15:09:51;100973.97;;;9.02;98.76
35553;BME280;21656;46.054;13.614;2023-02-02T15:12:44;100973.09;;;9.01;100.00
35553;BME280;21656;46.054;13.614;2023-02-02T15:15:25;100980.84;;;8.79;100.00
35553;BME280;21656;46.054;13.614;2023-02-02T15:18:01;100989.47;;;8.70;100.00
35553;BME280;21656;46.054;13.614;2023-02-02T15:20:33;100977.59;;;8.59;100.00
35553;BME280;21656;46.054;13.614;2023-02-02T15:26:00;100986.22;;;8.36;100.00
35553;BME280;21656;46.054;13.614;2023-02-02T15:31:28;101002.94;;;8.25;100.00
35553;BME280;21656;46.054;13.614;2023-02-02T15:34:02;100997.00;;;8.20;100.00
35553;BME280;21656;46.054;13.614;2023-02-02T15:36:35;100997.88;;;8.06;100.00
35553;BME280;21656;46.054;13.614;2023-02-02T15:41:54;101004.50;;;7.70;100.00
35553;BME280;21656;46.054;13.614;2023-02-02T15:44:39;100997.75;;;7.63;100.00
35553;BME280;21656;46.054;13.614;2023-02-02T15:47:17;101007.13;;;7.56;100.00
35553;BME280;21656;46.054;13.614;2023-02-02T15:49:43;100997.97;;;7.44;100.00
35553;BME280;21656;46.054;13.614;2023-02-02T15:52:22;101002.75;;;7.23;100.00
35553;BME280;21656;46.054;13.614;2023-02-02T15:54:52;101007.50;;;7.18;100.00
35553;BME280;21656;46.054;13.614;2023-02-02T15:57:36;101004.59;;;7.07;100.00
35553;BME280;21656;46.054;13.614;2023-02-02T16:02:51;101010.72;;;6.77;100.00
35553;BME280;21656;46.054;13.614;2023-02-02T16:05:48;101011.81;;;6.73;100.00
35553;BME280;21656;46.054;13.614;2023-02-02T16:08:35;101027.44;;;6.65;100.00
35553;BME280;21656;46.054;13.614;2023-02-02T16:13:41;101018.59;;;6.47;100.00
35553;BME280;21656;46.054;13.614;2023-02-02T16:16:24;101031.59;;;6.37;100.00
35553;BME280;21656;46.054;13.614;2023-02-02T16:19:22;101040.28;;;6.25;100.00
35553;BME280;21656;46.054;13.614;2023-02-02T16:21:59;101041.22;;;6.24;100.00
35553;BME280;21656;46.054;13.614;2023-02-02T16:24:32;101042.34;;;6.20;100.00
35553;BME280;21656;46.054;13.614;2023-02-02T16:27:01;101041.72;;;6.15;100.00
35553;BME280;21656;46.054;13.614;2023-02-02T16:29:29;101038.75;;;6.03;100.00
35553;BME280;21656;46.054;13.614;2023-02-02T16:31:56;101045.53;;;5.74;100.00
35553;BME280;21656;46.054;13.614;2023-02-02T16:39:36;101056.94;;;5.60;100.00
35553;BME280;21656;46.054;13.614;2023-02-02T16:42:10;101057.63;;;5.64;100.00
35553;BME280;21656;46.054;13.614;2023-02-02T16:44:37;101064.09;;;5.60;100.00
35553;BME280;21656;46.054;13.614;2023-02-02T16:47:07;101068.22;;;5.48;100.00
35553;BME280;21656;46.054;13.614;2023-02-02T16:50:18;101086.44;;;5.40;100.00
35553;BME280;21656;46.054;13.614;2023-02-02T16:55:18;101092.00;;;5.35;100.00
35553;BME280;21656;46.054;13.614;2023-02-02T16:57:46;101085.94;;;5.32;100.00
35553;BME280;21656;46.054;13.614;2023-02-02T17:00:21;101094.03;;;5.30;100.00
35553;BME280;21656;46.054;13.614;2023-02-02T17:02:50;101096.63;;;5.13;100.00
35553;BME280;21656;46.054;13.614;2023-02-02T17:05:23;101100.81;;;4.99;100.00
35553;BME280;21656;46.054;13.614;2023-02-02T17:07:59;101108.66;;;5.03;100.00
35553;BME280;21656;46.054;13.614;2023-02-02T17:10:39;101109.88;;;4.95;100.00
35553;BME280;21656;46.054;13.614;2023-02-02T17:13:39;101113.50;;;4.94;100.00
35553;BME280;21656;46.054;13.614;2023-02-02T17:16:05;101119.56;;;4.79;100.00
35553;BME280;21656;46.054;13.614;2023-02-02T17:18:30;101114.31;;;4.76;100.00
35553;BME280;21656;46.054;13.614;2023-02-02T17:20:57;101115.41;;;4.72;100.00
35553;BME280;21656;46.054;13.614;2023-02-02T17:23:30;101109.34;;;4.68;100.00
35553;BME280;21656;46.054;13.614;2023-02-02T17:25:56;101109.69;;;4.61;100.00
35553;BME280;21656;46.054;13.614;2023-02-02T17:28:24;101121.47;;;4.75;100.00
35553;BME280;21656;46.054;13.614;2023-02-02T17:30:58;101123.38;;;4.53;100.00
35553;BME280;21656;46.054;13.614;2023-02-02T17:33:25;101121.78;;;4.49;100.00
35553;BME280;21656;46.054;13.614;2023-02-02T17:35:51;101131.59;;;4.48;100.00
35553;BME280;21656;46.054;13.614;2023-02-02T17:38:23;101134.00;;;4.34;100.00
35553;BME280;21656;46.054;13.614;2023-02-02T17:40:50;101136.72;;;4.32;100.00
35553;BME280;21656;46.054;13.614;2023-02-02T17:43:17;101141.31;;;4.29;100.00
35553;BME280;21656;46.054;13.614;2023-02-02T17:45:42;101151.78;;;4.13;100.00
35553;BME280;21656;46.054;13.614;2023-02-02T17:48:11;101159.69;;;4.15;100.00
35553;BME280;21656;46.054;13.614;2023-02-02T17:50:37;101157.28;;;4.08;100.00
35553;BME280;21656;46.054;13.614;2023-02-02T17:53:03;101163.97;;;4.19;100.00
35553;BME280;21656;46.054;13.614;2023-02-02T17:55:31;101173.50;;;4.24;100.00
35553;BME280;21656;46.054;13.614;2023-02-02T17:57:57;101165.28;;;4.08;100.00
35553;BME280;21656;46.054;13.614;2023-02-02T18:00:24;101164.47;;;4.06;100.00
35553;BME280;21656;46.054;13.614;2023-02-02T18:02:52;101177.00;;;4.04;100.00
35553;BME280;21656;46.054;13.614;2023-02-02T18:05:19;101181.28;;;4.08;100.00
35553;BME280;21656;46.054;13.614;2023-02-02T18:07:45;101193.50;;;4.14;100.00
35553;BME280;21656;46.054;13.614;2023-02-02T18:10:12;101192.41;;;3.98;100.00
35553;BME280;21656;46.054;13.614;2023-02-02T18:12:38;101188.91;;;3.96;100.00
35553;BME280;21656;46.054;13.614;2023-02-02T18:15:06;101189.41;;;3.83;100.00
35553;BME280;21656;46.054;13.614;2023-02-02T18:17:33;101191.41;;;3.78;100.00
35553;BME280;21656;46.054;13.614;2023-02-02T18:19:59;101194.97;;;3.77;100.00
35553;BME280;21656;46.054;13.614;2023-02-02T18:22:25;101196.09;;;3.72;100.00
35553;BME280;21656;46.054;13.614;2023-02-02T18:24:51;101205.03;;;3.71;100.00
35553;BME280;21656;46.054;13.614;2023-02-02T18:27:19;101204.22;;;3.68;100.00
35553;BME280;21656;46.054;13.614;2023-02-02T18:29:46;101206.00;;;3.68;100.00
35553;BME280;21656;46.054;13.614;2023-02-02T18:32:13;101205.34;;;3.63;100.00
35553;BME280;21656;46.054;13.614;2023-02-02T18:34:39;101209.53;;;3.68;100.00
35553;BME280;21656;46.054;13.614;2023-02-02T18:37:06;101206.28;;;3.38;100.00
35553;BME280;21656;46.054;13.614;2023-02-02T18:39:33;101203.16;;;3.27;100.00
35553;BME280;21656;46.054;13.614;2023-02-02T18:41:59;101208.28;;;3.32;100.00
35553;BME280;21656;46.054;13.614;2023-02-02T18:44:27;101212.13;;;3.24;100.00
35553;BME280;21656;46.054;13.614;2023-02-02T18:46:54;101216.69;;;3.21;100.00
35553;BME280;21656;46.054;13.614;2023-02-02T18:49:20;101213.22;;;3.19;100.00
35553;BME280;21656;46.054;13.614;2023-02-02T18:51:46;101225.38;;;3.26;100.00
35553;BME280;21656;46.054;13.614;2023-02-02T18:54:13;101228.09;;;3.24;100.00
35553;BME280;21656;46.054;13.614;2023-02-02T18:56:40;101230.34;;;3.12;100.00
35553;BME280;21656;46.054;13.614;2023-02-02T18:59:06;101235.88;;;3.06;100.00
35553;BME280;21656;46.054;13.614;2023-02-02T19:01:33;101242.59;;;2.92;100.00
35553;BME280;21656;46.054;13.614;2023-02-02T19:03:59;101234.75;;;2.88;100.00
35553;BME280;21656;46.054;13.614;2023-02-02T19:06:26;101246.66;;;2.77;100.00
35553;BME280;21656;46.054;13.614;2023-02-02T19:09:10;101241.34;;;2.77;100.00
35553;BME280;21656;46.054;13.614;2023-02-02T19:11:39;101255.56;;;2.76;100.00
35553;BME280;21656;46.054;13.614;2023-02-02T19:14:18;101253.50;;;2.85;100.00
35553;BME280;21656;46.054;13.614;2023-02-02T19:16:46;101264.28;;;2.80;100.00
35553;BME280;21656;46.054;13.614;2023-02-02T19:19:30;101267.00;;;2.78;100.00
35553;BME280;21656;46.054;13.614;2023-02-02T19:21:59;101275.94;;;2.76;100.00
35553;BME280;21656;46.054;13.614;2023-02-02T19:24:26;101264.22;;;2.56;100.00
35553;BME280;21656;46.054;13.614;2023-02-02T19:26:52;101269.59;;;2.55;100.00
35553;BME280;21656;46.054;13.614;2023-02-02T19:29:23;101276.03;;;2.48;100.00
35553;BME280;21656;46.054;13.614;2023-02-02T19:32:12;101278.03;;;2.41;100.00
35553;BME280;21656;46.054;13.614;2023-02-02T19:34:39;101285.28;;;2.36;100.00
35553;BME280;21656;46.054;13.614;2023-02-02T19:37:31;101280.69;;;2.41;100.00
35553;BME280;21656;46.054;13.614;2023-02-02T19:42:40;101273.81;;;2.60;100.00
35553;BME280;21656;46.054;13.614;2023-02-02T19:45:28;101290.00;;;2.54;100.00
35553;BME280;21656;46.054;13.614;2023-02-02T19:47:54;101289.13;;;2.54;100.00
35553;BME280;21656;46.054;13.614;2023-02-02T19:50:26;101300.78;;;2.50;100.00
35553;BME280;21656;46.054;13.614;2023-02-02T19:52:53;101294.03;;;2.39;100.00
35553;BME280;21656;46.054;13.614;2023-02-02T19:55:27;101300.47;;;2.32;100.00
35553;BME280;21656;46.054;13.614;2023-02-02T19:58:23;101308.81;;;2.48;100.00
35553;BME280;21656;46.054;13.614;2023-02-02T20:00:52;101303.22;;;2.29;100.00
35553;BME280;21656;46.054;13.614;2023-02-02T20:03:27;101313.72;;;2.34;100.00
35553;BME280;21656;46.054;13.614;2023-02-02T20:06:02;101303.00;;;2.35;100.00
35553;BME280;21656;46.054;13.614;2023-02-02T20:08:39;101307.69;;;2.29;100.00
35553;BME280;21656;46.054;13.614;2023-02-02T20:13:45;101334.59;;;2.18;100.00
35553;BME280;21656;46.054;13.614;2023-02-02T20:16:23;101340.63;;;1.95;100.00
35553;BME280;21656;46.054;13.614;2023-02-02T20:18:56;101341.50;;;1.95;100.00
35553;BME280;21656;46.054;13.614;2023-02-02T20:21:42;101337.44;;;1.82;100.00
35553;BME280;21656;46.054;13.614;2023-02-02T20:24:31;101344.31;;;1.89;100.00
35553;BME280;21656;46.054;13.614;2023-02-02T20:27:04;101348.06;;;1.82;100.00
35553;BME280;21656;46.054;13.614;2023-02-02T20:29:41;101350.59;;;1.87;100.00
35553;BME280;21656;46.054;13.614;2023-02-02T20:32:28;101356.19;;;1.78;100.00
35553;BME280;21656;46.054;13.614;2023-02-02T20:35:23;101353.47;;;1.79;100.00
35553;BME280;21656;46.054;13.614;2023-02-02T20:37:49;101349.03;;;1.80;100.00
35553;BME280;21656;46.054;13.614;2023-02-02T20:40:22;101345.34;;;1.85;100.00
35553;BME280;21656;46.054;13.614;2023-02-02T20:42:48;101342.75;;;1.82;100.00
35553;BME280;21656;46.054;13.614;2023-02-02T20:45:15;101347.03;;;1.88;100.00
35553;BME280;21656;46.054;13.614;2023-02-02T20:47:45;101351.41;;;1.89;100.00
35553;BME280;21656;46.054;13.614;2023-02-02T20:50:12;101362.66;;;1.99;100.00
35553;BME280;21656;46.054;13.614;2023-02-02T20:52:39;101363.84;;;1.88;100.00
35553;BME280;21656;46.054;13.614;2023-02-02T20:55:06;101362.59;;;1.70;100.00
35553;BME280;21656;46.054;13.614;2023-02-02T20:57:32;101376.31;;;1.85;100.00
35553;BME280;21656;46.054;13.614;2023-02-02T20:59:58;101376.84;;;1.68;100.00
35553;BME280;21656;46.054;13.614;2023-02-02T21:02:25;101379.63;;;1.63;100.00
35553;BME280;21656;46.054;13.614;2023-02-02T21:04:52;101375.38;;;1.56;100.00
35553;BME280;21656;46.054;13.614;2023-02-02T21:07:19;101380.91;;;1.48;100.00
35553;BME280;21656;46.054;13.614;2023-02-02T21:09:47;101380.69;;;1.56;100.00
35553;BME280;21656;46.054;13.614;2023-02-02T21:12:13;101380.53;;;1.62;100.00
35553;BME280;21656;46.054;13.614;2023-02-02T21:14:39;101395.72;;;1.57;100.00
35553;BME280;21656;46.054;13.614;2023-02-02T21:17:05;101390.44;;;1.56;100.00
35553;BME280;21656;46.054;13.614;2023-02-02T21:19:32;101395.72;;;1.57;100.00
35553;BME280;21656;46.054;13.614;2023-02-02T21:21:58;101400.28;;;1.52;100.00
35553;BME280;21656;46.054;13.614;2023-02-02T21:24:24;101395.22;;;1.43;100.00
35553;BME280;21656;46.054;13.614;2023-02-02T21:26:50;101416.13;;;1.55;100.00
35553;BME280;21656;46.054;13.614;2023-02-02T21:29:16;101422.53;;;1.46;100.00
35553;BME280;21656;46.054;13.614;2023-02-02T21:31:41;101425.19;;;1.46;100.00
35553;BME280;21656;46.054;13.614;2023-02-02T21:34:07;101425.28;;;1.43;100.00
35553;BME280;21656;46.054;13.614;2023-02-02T21:36:35;101435.81;;;1.46;100.00
35553;BME280;21656;46.054;13.614;2023-02-02T21:41:42;101444.63;;;1.48;100.00
35553;BME280;21656;46.054;13.614;2023-02-02T21:44:12;101440.16;;;1.50;100.00
35553;BME280;21656;46.054;13.614;2023-02-02T21:46:37;101446.69;;;1.37;100.00
35553;BME280;21656;46.054;13.614;2023-02-02T21:49:03;101447.47;;;1.41;100.00
35553;BME280;21656;46.054;13.614;2023-02-02T21:51:36;101438.69;;;1.39;100.00
35553;BME280;21656;46.054;13.614;2023-02-02T21:54:17;101442.53;;;1.27;100.00
35553;BME280;21656;46.054;13.614;2023-02-02T21:56:43;101440.69;;;1.29;100.00
35553;BME280;21656;46.054;13.614;2023-02-02T21:59:15;101455.56;;;1.36;100.00
35553;BME280;21656;46.054;13.614;2023-02-02T22:01:41;101457.97;;;1.45;100.00
35553;BME280;21656;46.054;13.614;2023-02-02T22:04:20;101459.97;;;1.37;100.00
35553;BME280;21656;46.054;13.614;2023-02-02T22:06:59;101451.47;;;1.23;100.00
35553;BME280;21656;46.054;13.614;2023-02-02T22:09:27;101451.66;;;1.17;100.00
35553;BME280;21656;46.054;13.614;2023-02-02T22:12:19;101463.16;;;1.16;100.00
35553;BME280;21656;46.054;13.614;2023-02-02T22:14:47;101473.66;;;1.20;100.00
35553;BME280;21656;46.054;13.614;2023-02-02T22:19:47;101472.53;;;1.29;100.00
35553;BME280;21656;46.054;13.614;2023-02-02T22:24:41;101473.38;;;1.31;100.00
35553;BME280;21656;46.054;13.614;2023-02-02T22:27:19;101479.00;;;1.19;100.00
35553;BME280;21656;46.054;13.614;2023-02-02T22:29:45;101485.34;;;1.13;100.00
35553;BME280;21656;46.054;13.614;2023-02-02T22:32:11;101490.44;;;1.22;100.00
35553;BME280;21656;46.054;13.614;2023-02-02T22:34:36;101485.59;;;1.02;100.00
35553;BME280;21656;46.054;13.614;2023-02-02T22:37:01;101496.28;;;0.99;100.00
35553;BME280;21656;46.054;13.614;2023-02-02T22:39:27;101492.94;;;0.91;100.00
35553;BME280;21656;46.054;13.614;2023-02-02T22:41:52;101501.81;;;0.89;100.00
35553;BME280;21656;46.054;13.614;2023-02-02T22:44:17;101507.00;;;0.95;100.00
35553;BME280;21656;46.054;13.614;2023-02-02T22:46:43;101504.16;;;1.04;100.00
35553;BME280;21656;46.054;13.614;2023-02-02T22:49:08;101509.31;;;1.08;100.00
35553;BME280;21656;46.054;13.614;2023-02-02T22:51:34;101509.22;;;1.13;100.00
35553;BME280;21656;46.054;13.614;2023-02-02T22:53:59;101507.38;;;1.17;100.00
35553;BME280;21656;46.054;13.614;2023-02-02T22:56:24;101507.59;;;1.07;100.00